Time;durP1;ratioP1;P1;durP2;ratioP2;P2;SDS_P1;SDS_P2;PMS_P1;PMS_P2;Temp;Humidity;BMP_temperature;BMP_pressure;BME280_temperature;BME280_humidity;BME280_pressure;Samples;Min_cycle;Max_cycle;Signal;HPM_P1;HPM_P2
2022/12/28 00:01:31;;;;;;;8.43;4.63;;;;;;;11.40;71.45;95639.19;5132809;27;20188;-46
2022/12/28 00:03:59;;;;;;;5.50;4.27;;;;;;;11.45;71.54;95647.31;5132740;27;20197;-46
2022/12/28 00:06:26;;;;;;;4.50;4.00;;;;;;;11.46;71.31;95650.69;5132267;27;20601;-48
2022/12/28 00:08:53;;;;;;;4.73;4.33;;;;;;;11.45;71.30;95647.31;5132283;27;20192;-46
2022/12/28 00:11:24;;;;;;;4.83;4.33;;;;;;;11.45;71.07;95646.50;5132139;27;20204;-47
2022/12/28 00:13:51;;;;;;;4.37;3.97;;;;;;;11.45;71.33;95642.19;5132151;27;20685;-48
2022/12/28 00:16:24;;;;;;;3.93;3.50;;;;;;;11.49;71.28;95655.56;5131821;27;20180;-48
2022/12/28 00:18:51;;;;;;;4.23;3.80;;;;;;;11.49;71.17;95653.81;5131844;27;20181;-46
2022/12/28 00:21:17;;;;;;;4.83;4.27;;;;;;;11.50;70.99;95652.88;5132422;27;20196;-46
2022/12/28 00:23:44;;;;;;;5.83;4.33;;;;;;;11.51;71.05;95653.69;5131993;27;20268;-48
2022/12/28 00:26:13;;;;;;;4.70;4.13;;;;;;;11.52;70.90;95655.31;5132460;27;20671;-47
2022/12/28 00:28:41;;;;;;;5.23;4.57;;;;;;;11.51;70.92;95658.81;5132494;27;20561;-48
2022/12/28 00:31:08;;;;;;;4.67;4.27;;;;;;;11.53;71.27;95662.91;5131907;27;20289;-48
2022/12/28 00:33:35;;;;;;;6.20;4.40;;;;;;;11.38;70.83;95638.47;5132273;27;20184;-50
2022/12/28 00:36:03;;;;;;;6.43;4.67;;;;;;;11.52;70.68;95661.25;5132852;27;20649;-46
2022/12/28 00:38:31;;;;;;;4.57;4.17;;;;;;;11.57;70.69;95671.13;5131740;27;20675;-48
2022/12/28 00:40:58;;;;;;;4.50;4.10;;;;;;;11.56;70.69;95669.50;5131463;27;20635;-48
2022/12/28 00:43:25;;;;;;;5.00;4.37;;;;;;;11.57;70.73;95676.25;5131760;27;20181;-48
2022/12/28 00:45:53;;;;;;;5.03;4.50;;;;;;;11.56;70.62;95678.00;5132071;27;20180;-47
2022/12/28 00:48:20;;;;;;;4.70;4.20;;;;;;;11.59;70.57;95683.84;5131426;27;20643;-47
2022/12/28 00:50:46;;;;;;;4.90;4.40;;;;;;;11.60;70.70;95683.72;5131695;27;20740;-47
2022/12/28 00:53:14;;;;;;;3.97;3.67;;;;;;;11.61;70.35;95685.34;5131480;27;20709;-50
2022/12/28 00:55:41;;;;;;;5.90;4.57;;;;;;;11.60;70.54;95680.34;5131192;27;20204;-46
2022/12/28 00:58:09;;;;;;;5.57;4.63;;;;;;;11.61;70.24;95684.53;5131525;27;20184;-46
2022/12/28 01:00:37;;;;;;;5.30;4.40;;;;;;;11.63;70.45;95687.78;5131581;27;20184;-48
2022/12/28 01:03:05;;;;;;;5.53;4.63;;;;;;;11.62;70.61;95692.13;5130516;27;20230;-45
2022/12/28 01:05:32;;;;;;;5.73;4.90;;;;;;;11.60;70.40;95685.47;5131481;27;20188;-48
2022/12/28 01:07:58;;;;;;;5.37;4.53;;;;;;;11.64;70.51;95692.78;5131608;27;20191;-47
2022/12/28 01:10:25;;;;;;;4.50;4.10;;;;;;;11.62;70.68;95687.00;5130968;27;20245;-45
2022/12/28 01:12:53;;;;;;;5.43;4.73;;;;;;;11.63;70.36;95690.38;5131197;27;20180;-49
2022/12/28 01:15:20;;;;;;;5.57;4.73;;;;;;;11.63;70.55;95682.66;5131069;27;20606;-49
2022/12/28 01:17:47;;;;;;;6.00;4.40;;;;;;;11.62;70.38;95681.06;5130852;27;20660;-49
2022/12/28 01:20:15;;;;;;;4.63;4.23;;;;;;;11.62;70.52;95683.63;5130686;27;20261;-47
2022/12/28 01:22:42;;;;;;;5.27;4.77;;;;;;;11.22;70.69;95622.66;5131361;27;20191;-48
2022/12/28 01:25:09;;;;;;;4.63;4.23;;;;;;;11.59;70.86;95678.72;5130783;27;20191;-47
2022/12/28 01:27:36;;;;;;;4.70;4.07;;;;;;;11.58;70.84;95685.59;5130646;27;20826;-47
2022/12/28 01:30:03;;;;;;;5.30;4.80;;;;;;;11.58;70.73;95675.34;5131019;27;20180;-47
2022/12/28 01:32:30;;;;;;;6.13;5.07;;;;;;;11.54;70.81;95674.78;5130925;27;20254;-47
2022/12/28 01:34:57;;;;;;;6.00;5.13;;;;;;;11.53;70.73;95675.72;5131222;27;20311;-46
2022/12/28 01:37:25;;;;;;;5.17;4.67;;;;;;;11.55;70.68;95678.94;5130947;27;20196;-47
2022/12/28 01:39:52;;;;;;;6.00;4.80;;;;;;;11.53;70.74;95675.72;5130152;27;20215;-47
2022/12/28 01:42:19;;;;;;;5.20;4.70;;;;;;;11.52;70.66;95674.06;5130478;27;20246;-47
2022/12/28 01:44:47;;;;;;;5.17;4.67;;;;;;;11.50;70.93;95673.38;5130296;27;20188;-48
2022/12/28 01:47:17;;;;;;;5.37;4.80;;;;;;;11.50;71.11;95675.13;5129953;27;20195;-47
2022/12/28 01:49:50;;;;;;;5.53;5.00;;;;;;;11.47;70.89;95681.28;5130594;27;20180;-46
2022/12/28 01:52:21;;;;;;;5.80;5.20;;;;;;;11.46;70.93;95678.84;5130257;27;20261;-48
2022/12/28 01:54:54;;;;;;;5.57;4.73;;;;;;;11.23;70.98;95642.22;5130235;27;20192;-46
2022/12/28 01:57:25;;;;;;;5.70;4.93;;;;;;;11.43;71.10;95672.22;5129862;27;20237;-47
2022/12/28 01:59:56;;;;;;;9.10;4.90;;;;;;;11.42;71.15;95674.91;5130700;27;20192;-47
2022/12/28 02:02:23;;;;;;;9.30;5.50;;;;;;;11.33;71.19;95657.69;5130400;27;20188;-47
2022/12/28 02:04:50;;;;;;;6.67;5.40;;;;;;;11.39;71.12;95667.44;5131492;27;20189;-46
2022/12/28 02:07:24;;;;;;;6.40;5.67;;;;;;;11.38;71.12;95658.13;5131717;27;20196;-46
2022/12/28 02:09:53;;;;;;;5.70;4.80;;;;;;;11.37;71.13;95659.09;5130399;27;20261;-46
2022/12/28 02:12:20;;;;;;;7.87;5.30;;;;;;;11.36;70.92;95662.59;5130289;27;20569;-46
2022/12/28 02:14:47;;;;;;;6.30;5.37;;;;;;;11.34;70.96;95657.56;5129689;27;20184;-46
2022/12/28 02:17:14;;;;;;;6.40;5.53;;;;;;;11.30;70.89;95656.97;5129636;27;20176;-47
2022/12/28 02:19:45;;;;;;;5.97;5.37;;;;;;;11.31;70.97;95655.22;5130519;27;20275;-48
2022/12/28 02:22:41;;;;;;;6.40;5.70;;;;;;;11.32;70.86;95648.38;5129916;27;20234;-52
2022/12/28 02:25:58;;;;;;;7.07;5.73;;;;;;;11.26;71.22;95631.72;5131225;27;20241;-45
2022/12/28 02:29:27;;;;;;;6.47;5.70;;;;;;;11.26;70.86;95641.97;5027303;28;20184;-48
2022/12/28 02:32:03;;;;;;;7.37;6.67;;;;;;;11.22;71.12;95643.13;4968702;28;20213;-51
2022/12/28 02:34:37;;;;;;;7.13;6.17;;;;;;;11.21;71.23;95629.53;4968855;28;20220;-49
2022/12/28 02:37:10;;;;;;;7.20;6.13;;;;;;;11.21;71.09;95634.66;4968214;28;20256;-47
2022/12/28 02:39:41;;;;;;;7.43;6.23;;;;;;;11.19;71.25;95631.41;4967549;28;20225;-46
2022/12/28 02:42:09;;;;;;;6.93;6.23;;;;;;;11.17;71.06;95632.44;4967851;28;20189;-48
2022/12/28 02:50:11;;;;;;;7.10;6.40;;;;;;;11.17;71.18;95623.00;4967396;28;20197;-48
2022/12/28 02:53:03;;;;;;;7.40;6.70;;;;;;;11.15;70.75;95630.00;4967300;28;20299;-46
2022/12/28 02:58:43;;;;;;;7.50;6.33;;;;;;;11.13;70.96;95613.94;4968085;28;20201;-46
2022/12/28 03:01:24;;;;;;;7.63;6.83;;;;;;;11.13;70.96;95615.69;4967281;28;20288;-47
2022/12/28 03:04:06;;;;;;;8.07;6.70;;;;;;;11.12;70.92;95614.88;5026171;28;20191;-47
2022/12/28 03:09:31;;;;;;;6.93;6.23;;;;;;;11.10;70.76;95605.69;5109065;28;20192;-48
2022/12/28 03:12:03;;;;;;;7.20;6.37;;;;;;;11.09;70.68;95609.97;5128704;28;20273;-47
2022/12/28 03:14:36;;;;;;;7.73;5.97;;;;;;;11.09;70.44;95619.41;5130149;28;20382;-46
2022/12/28 03:31:14;;;;;;;7.60;6.07;;;;;;;11.04;70.31;95628.25;5132818;27;20280;-46
2022/12/28 03:33:45;;;;;;;7.20;6.00;;;;;;;11.04;70.41;95637.69;5133273;27;20665;-47
2022/12/28 03:36:23;;;;;;;7.33;6.03;;;;;;;11.05;70.53;95640.16;5133052;27;20634;-46
2022/12/28 03:39:01;;;;;;;6.37;5.47;;;;;;;11.04;70.25;95638.50;5133442;27;20277;-48
2022/12/28 03:41:34;;;;;;;8.13;6.43;;;;;;;10.96;70.19;95628.03;5133200;27;20248;-46
2022/12/28 03:44:08;;;;;;;7.33;5.97;;;;;;;11.04;70.30;95635.13;5132630;27;20210;-45
2022/12/28 03:46:43;;;;;;;7.93;6.97;;;;;;;11.04;70.00;95632.56;5133033;27;20268;-48
2022/12/28 03:49:11;;;;;;;6.77;5.80;;;;;;;11.03;70.06;95633.50;5132455;27;20303;-47
2022/12/28 03:51:40;;;;;;;7.70;6.63;;;;;;;11.03;70.03;95636.06;5132723;27;20204;-46
2022/12/28 03:54:07;;;;;;;7.40;6.37;;;;;;;10.99;70.00;95627.00;5131999;27;20660;-46
2022/12/28 03:56:34;;;;;;;7.90;6.23;;;;;;;10.94;70.07;95619.66;5133049;27;20207;-46
2022/12/28 03:59:01;;;;;;;8.00;6.63;;;;;;;10.97;69.97;95616.88;5132537;27;20249;-48
2022/12/28 04:01:27;;;;;;;7.70;6.13;;;;;;;10.97;70.15;95613.50;5132532;27;20181;-48
2022/12/28 04:03:54;;;;;;;6.57;5.90;;;;;;;10.94;69.97;95619.66;5132135;27;20187;-46
2022/12/28 04:06:21;;;;;;;6.07;5.40;;;;;;;10.94;69.89;95623.97;5131853;27;20709;-47
2022/12/28 04:08:49;;;;;;;7.13;5.87;;;;;;;10.93;69.81;95624.91;5132684;27;20207;-47
2022/12/28 04:11:16;;;;;;;8.33;5.57;;;;;;;10.92;69.95;95620.69;5132093;27;20675;-47
2022/12/28 04:13:43;;;;;;;6.30;5.63;;;;;;;10.91;69.64;95622.44;5132100;27;20702;-48
2022/12/28 04:16:12;;;;;;;6.67;5.70;;;;;;;10.81;69.82;95603.63;5132072;27;20211;-46
2022/12/28 04:18:40;;;;;;;6.03;5.43;;;;;;;10.90;69.82;95614.91;5132317;27;20240;-49
2022/12/28 04:21:07;;;;;;;7.07;6.07;;;;;;;10.90;69.75;95622.56;5132052;27;20184;-47
2022/12/28 04:23:35;;;;;;;6.90;6.17;;;;;;;10.88;69.68;95629.53;5132389;27;20748;-45
2022/12/28 04:26:05;;;;;;;6.63;5.53;;;;;;;10.90;69.55;95645.59;5131470;27;20203;-47
2022/12/28 04:28:32;;;;;;;7.23;6.47;;;;;;;10.87;69.49;95646.63;5132045;27;20176;-46
2022/12/28 04:31:00;;;;;;;6.23;5.33;;;;;;;10.87;69.66;95653.50;5131806;27;20176;-49
2022/12/28 04:33:28;;;;;;;6.50;5.90;;;;;;;10.86;69.57;95647.56;5132086;27;20297;-48
2022/12/28 04:36:05;;;;;;;6.13;5.53;;;;;;;10.87;69.70;95651.75;5131045;27;20200;-46
2022/12/28 04:38:32;;;;;;;5.43;4.77;;;;;;;11.05;73.33;95652.94;5131565;27;20184;-46
2022/12/28 04:40:59;;;;;;;5.90;4.80;;;;;;;11.24;73.07;95646.41;5131608;27;20294;-47
2022/12/28 04:43:29;;;;;;;6.50;4.93;;;;;;;11.37;72.87;95653.97;5131569;27;20683;-45
2022/12/28 04:45:56;;;;;;;7.87;5.13;;;;;;;11.38;74.29;95656.38;5131281;27;20184;-48
2022/12/28 04:48:23;;;;;;;5.50;4.43;;;;;;;11.39;75.00;95658.00;5131664;27;20295;-46
2022/12/28 04:50:50;;;;;;;5.67;4.67;;;;;;;11.37;74.81;95664.19;5131657;27;20254;-45
2022/12/28 04:53:17;;;;;;;5.87;4.90;;;;;;;11.36;74.68;95660.03;5131886;27;20276;-47
2022/12/28 04:55:43;;;;;;;8.37;5.17;;;;;;;11.23;74.41;95644.78;5131828;27;20577;-47
2022/12/28 04:58:10;;;;;;;7.60;4.87;;;;;;;11.35;74.09;95671.97;5130815;27;20181;-48
2022/12/28 05:00:38;;;;;;;5.30;4.63;;;;;;;11.34;73.85;95670.38;5131644;27;20260;-46
2022/12/28 05:03:06;;;;;;;5.53;4.80;;;;;;;11.32;73.41;95659.44;5131201;27;20220;-49
2022/12/28 05:05:34;;;;;;;8.07;5.10;;;;;;;11.11;73.18;95623.50;5132811;27;20188;-47
2022/12/28 05:08:02;;;;;;;4.70;4.20;;;;;;;11.31;72.79;95655.22;5130200;27;20214;-45
2022/12/28 05:10:29;;;;;;;7.07;5.40;;;;;;;11.30;72.62;95649.28;5131488;27;20195;-51
2022/12/28 05:12:56;;;;;;;6.90;4.97;;;;;;;11.15;72.67;95629.19;5131155;27;20276;-46
2022/12/28 05:15:23;;;;;;;5.23;4.53;;;;;;;11.30;72.04;95656.97;5131400;27;20206;-46
2022/12/28 05:17:51;;;;;;;5.40;4.90;;;;;;;11.30;71.80;95654.41;5131228;27;20210;-45
2022/12/28 05:20:20;;;;;;;6.27;4.63;;;;;;;11.30;71.94;95651.03;5130935;27;20192;-45
2022/12/28 05:22:47;;;;;;;5.23;4.63;;;;;;;11.29;71.61;95652.78;5130873;27;20245;-46
2022/12/28 05:25:14;;;;;;;5.37;4.47;;;;;;;11.29;71.40;95644.31;5131003;27;20181;-46
2022/12/28 05:27:41;;;;;;;5.10;4.60;;;;;;;11.28;71.33;95653.72;5130153;27;20192;-49
2022/12/28 05:30:09;;;;;;;5.77;4.67;;;;;;;11.27;71.10;95659.78;5130307;27;20667;-48
2022/12/28 05:32:35;;;;;;;5.77;5.13;;;;;;;11.27;71.01;95656.44;5130948;27;20227;-48
2022/12/28 05:35:04;;;;;;;5.53;4.60;;;;;;;11.27;70.81;95664.09;5130856;27;20199;-46
2022/12/28 05:37:31;;;;;;;5.03;4.53;;;;;;;11.26;70.97;95667.56;5131230;27;20196;-47
2022/12/28 05:39:57;;;;;;;6.07;4.73;;;;;;;11.23;70.79;95671.19;5130096;27;20596;-47
2022/12/28 05:42:24;;;;;;;6.03;4.77;;;;;;;11.23;70.33;95676.31;5130344;27;20191;-47
2022/12/28 05:44:51;;;;;;;5.33;4.73;;;;;;;11.24;70.51;95687.38;5130487;27;20184;-46
2022/12/28 05:47:18;;;;;;;5.77;4.67;;;;;;;11.23;70.25;95678.88;5130951;27;20180;-48
2022/12/28 05:49:46;;;;;;;5.63;4.67;;;;;;;11.23;70.10;95675.50;5130367;27;20692;-48
2022/12/28 05:52:14;;;;;;;5.47;4.93;;;;;;;11.09;69.79;95666.31;5130437;27;20203;-50
2022/12/28 05:54:40;;;;;;;5.00;4.40;;;;;;;11.21;69.62;95685.84;5116790;27;20196;-46
2022/12/28 05:57:07;;;;;;;5.67;4.93;;;;;;;11.20;69.60;95683.41;5130722;27;20224;-46
2022/12/28 05:59:34;;;;;;;6.33;4.50;;;;;;;11.21;69.57;95685.03;5130247;27;20196;-47
2022/12/28 06:02:01;;;;;;;5.07;4.40;;;;;;;11.19;69.35;95685.16;5130166;27;20195;-47
2022/12/28 06:04:28;;;;;;;5.10;4.30;;;;;;;11.19;69.24;95681.81;5130281;27;20660;-46
2022/12/28 06:06:54;;;;;;;5.73;4.57;;;;;;;11.20;69.14;95685.97;5130666;27;20278;-47
2022/12/28 06:09:22;;;;;;;6.57;4.70;;;;;;;11.16;69.06;95692.25;5129966;27;20203;-47
2022/12/28 06:11:49;;;;;;;4.93;4.40;;;;;;;10.99;69.11;95662.81;5129167;27;20199;-46
2022/12/28 06:14:16;;;;;;;4.67;4.17;;;;;;;11.19;69.00;95707.41;5129956;27;20229;-47
2022/12/28 06:16:43;;;;;;;4.90;4.37;;;;;;;11.18;68.81;95701.47;5130291;27;20196;-46
2022/12/28 06:19:13;;;;;;;5.10;4.53;;;;;;;11.18;69.15;95706.59;5130921;27;20204;-47
2022/12/28 06:21:41;;;;;;;4.90;4.40;;;;;;;11.11;68.78;95686.69;5130473;27;20216;-47
2022/12/28 06:24:09;;;;;;;6.03;4.10;;;;;;;11.18;68.69;95692.94;5130384;27;20192;-45
2022/12/28 06:26:39;;;;;;;5.67;4.70;;;;;;;10.97;68.63;95662.94;5130312;27;20683;-46
2022/12/28 06:29:06;;;;;;;5.37;4.23;;;;;;;11.19;68.26;95697.16;5130490;28;20235;-46
2022/12/28 06:31:35;;;;;;;5.77;4.70;;;;;;;11.19;68.34;95695.41;5130088;28;20204;-47
2022/12/28 06:34:04;;;;;;;5.00;4.33;;;;;;;11.20;68.26;95691.09;5130373;28;20223;-48
2022/12/28 06:36:33;;;;;;;4.67;4.13;;;;;;;11.22;68.21;95700.28;5129484;28;20660;-48
2022/12/28 06:39:01;;;;;;;5.30;4.80;;;;;;;11.22;68.01;95707.97;5130061;28;20276;-46
2022/12/28 06:41:28;;;;;;;6.77;4.40;;;;;;;11.23;67.92;95712.16;5129522;28;20188;-46
2022/12/28 06:43:57;;;;;;;5.40;4.20;;;;;;;10.84;67.92;95659.69;5130098;28;20188;-47
2022/12/28 06:46:26;;;;;;;5.27;4.63;;;;;;;11.24;67.75;95718.91;5129710;28;20192;-47
2022/12/28 06:48:54;;;;;;;6.10;4.50;;;;;;;11.26;67.70;95714.47;5129889;28;20273;-46
2022/12/28 06:51:22;;;;;;;5.43;4.93;;;;;;;11.28;67.58;95709.25;5129595;28;20188;-47
2022/12/28 06:53:50;;;;;;;5.50;4.37;;;;;;;11.31;67.51;95714.13;5130157;28;20919;-48
2022/12/28 06:56:19;;;;;;;5.63;4.77;;;;;;;11.34;67.60;95715.66;5133235;28;20192;-47
2022/12/28 06:58:47;;;;;;;5.80;4.70;;;;;;;11.36;67.35;95711.25;5132218;27;20621;-45
2022/12/28 07:01:17;;;;;;;7.07;5.07;;;;;;;11.39;67.21;95713.53;5134114;27;20199;-46
2022/12/28 07:03:45;;;;;;;7.67;5.07;;;;;;;11.40;67.41;95707.47;5134143;27;20184;-46
2022/12/28 07:06:14;;;;;;;6.80;5.03;;;;;;;11.42;67.13;95706.44;5134218;27;20245;-47
2022/12/28 07:08:41;;;;;;;5.40;4.40;;;;;;;11.45;67.02;95702.84;5132914;27;20291;-47
2022/12/28 07:11:10;;;;;;;8.93;5.03;;;;;;;11.48;67.05;95713.66;5133155;27;20201;-46
2022/12/28 07:13:37;;;;;;;6.20;5.47;;;;;;;11.51;66.81;95715.16;5133032;27;20223;-47
2022/12/28 07:16:06;;;;;;;5.87;4.77;;;;;;;11.53;66.64;95705.63;5133754;27;20192;-47
2022/12/28 07:18:34;;;;;;;5.40;4.60;;;;;;;11.57;66.67;95696.75;5133330;27;20199;-47
2022/12/28 07:21:03;;;;;;;6.20;4.77;;;;;;;11.62;66.43;95706.69;5133296;27;20192;-49
2022/12/28 07:23:30;;;;;;;5.37;4.73;;;;;;;11.68;66.04;95701.06;5122834;27;20574;-47
2022/12/28 07:25:57;;;;;;;5.80;4.93;;;;;;;11.77;66.16;95702.91;5133843;27;20264;-46
2022/12/28 07:28:25;;;;;;;6.40;4.83;;;;;;;11.65;65.93;95676.47;5133249;27;20652;-49
2022/12/28 07:30:51;;;;;;;6.40;5.27;;;;;;;11.91;65.57;95705.22;5134360;27;20184;-46
2022/12/28 07:33:18;;;;;;;7.10;6.00;;;;;;;12.07;65.38;95711.72;5132037;27;20218;-45
2022/12/28 07:35:47;;;;;;;7.53;6.10;;;;;;;12.03;65.08;95699.13;5132951;27;20180;-46
2022/12/28 07:38:13;;;;;;;8.03;6.00;;;;;;;12.33;64.73;95725.03;5132818;27;20257;-48
2022/12/28 07:40:40;;;;;;;6.30;5.13;;;;;;;12.47;64.62;95724.72;5133103;27;20704;-47
2022/12/28 07:43:07;;;;;;;7.33;5.70;;;;;;;12.61;64.22;95724.44;5133275;27;20237;-47
2022/12/28 07:45:34;;;;;;;7.57;6.33;;;;;;;12.74;64.12;95725.06;5132723;27;20196;-46
2022/12/28 07:48:00;;;;;;;7.97;5.57;;;;;;;12.86;63.61;95732.69;5133168;27;20250;-48
2022/12/28 07:50:27;;;;;;;7.00;5.07;;;;;;;12.95;63.51;95734.50;5132468;27;20192;-47
2022/12/28 07:52:55;;;;;;;6.10;5.03;;;;;;;12.93;63.69;95726.94;5132710;27;20212;-46
2022/12/28 07:55:23;;;;;;;7.67;5.90;;;;;;;13.04;63.62;95736.31;5132716;27;20176;-45
2022/12/28 07:57:52;;;;;;;9.53;5.90;;;;;;;13.06;63.61;95734.44;5132897;27;20195;-48
2022/12/28 08:00:19;;;;;;;10.70;6.37;;;;;;;13.07;63.50;95733.47;5132666;27;20687;-46
2022/12/28 08:02:45;;;;;;;7.53;6.07;;;;;;;13.08;63.65;95737.66;5133045;27;20191;-48
2022/12/28 08:05:12;;;;;;;7.63;6.50;;;;;;;13.09;63.32;95733.38;5132359;27;20177;-46
2022/12/28 08:07:39;;;;;;;10.83;7.57;;;;;;;13.07;63.35;95733.47;5132156;27;20237;-45
2022/12/28 08:10:08;;;;;;;8.73;7.23;;;;;;;13.07;63.35;95731.72;5132770;27;20177;-47
2022/12/28 08:12:35;;;;;;;9.10;7.13;;;;;;;13.09;63.38;95729.03;5131797;27;20192;-48
2022/12/28 08:15:02;;;;;;;9.30;6.73;;;;;;;13.10;63.21;95735.00;5132603;27;20241;-45
2022/12/28 08:17:29;;;;;;;8.00;6.53;;;;;;;13.11;63.16;95728.91;5131861;27;20579;-46
2022/12/28 08:19:56;;;;;;;8.27;7.07;;;;;;;13.11;63.08;95734.84;5132639;27;20180;-49
2022/12/28 08:22:23;;;;;;;8.27;6.30;;;;;;;13.12;62.90;95727.97;5132452;27;20655;-48
2022/12/28 08:24:51;;;;;;;9.60;6.70;;;;;;;13.14;63.08;95736.38;5132043;27;20196;-46
2022/12/28 08:27:19;;;;;;;8.73;6.80;;;;;;;13.14;62.85;95744.06;5131703;27;20192;-47
2022/12/28 08:29:46;;;;;;;10.70;7.23;;;;;;;13.13;62.82;95734.75;5132123;27;20555;-47
2022/12/28 08:32:12;;;;;;;7.63;6.50;;;;;;;13.12;62.99;95739.03;5131900;27;20695;-47
2022/12/28 08:34:39;;;;;;;8.73;6.97;;;;;;;13.10;62.93;95743.50;5132880;27;20580;-48
2022/12/28 08:37:06;;;;;;;7.23;6.30;;;;;;;12.99;62.94;95728.16;5123205;27;20196;-48
2022/12/28 08:39:35;;;;;;;8.83;6.63;;;;;;;13.07;62.70;95749.69;5125701;27;20220;-45
2022/12/28 08:42:04;;;;;;;7.37;6.57;;;;;;;13.05;62.95;95741.31;5136450;27;20202;-45
2022/12/28 08:44:37;;;;;;;6.93;5.90;;;;;;;13.02;63.04;95730.47;5146183;27;20214;-45
2022/12/28 08:47:06;;;;;;;9.53;6.33;;;;;;;13.05;62.85;95743.06;5133320;27;20264;-45
2022/12/28 08:49:33;;;;;;;6.43;5.43;;;;;;;13.04;62.85;95737.13;5132106;27;20192;-45
2022/12/28 08:52:01;;;;;;;14.60;6.60;;;;;;;13.04;62.72;95734.56;5134116;27;20276;-45
2022/12/28 08:54:29;;;;;;;9.63;5.80;;;;;;;13.04;62.69;95739.69;5132143;27;20215;-46
2022/12/28 08:56:59;;;;;;;7.90;6.57;;;;;;;13.03;62.72;95740.63;5137708;27;20245;-43
2022/12/28 08:59:27;;;;;;;8.37;6.37;;;;;;;13.04;62.58;95728.63;5130065;27;20218;-45
2022/12/28 09:01:56;;;;;;;7.07;6.07;;;;;;;13.00;62.41;95719.53;5131761;27;20262;-45
2022/12/28 09:04:24;;;;;;;7.37;5.90;;;;;;;13.02;62.46;95721.03;5132028;27;20241;-48
2022/12/28 09:06:51;;;;;;;14.87;4.20;;;;;;;13.34;85.74;95714.97;5131794;27;20271;-46
2022/12/28 09:09:20;;;;;;;3.53;3.23;;;;;;;14.08;88.54;95711.25;5129378;27;20597;-45
2022/12/28 09:11:48;;;;;;;3.83;3.10;;;;;;;14.79;86.88;95704.88;5129366;27;20287;-45
2022/12/28 09:14:15;;;;;;;3.70;3.40;;;;;;;15.43;84.32;95703.31;5127859;27;20227;-47
2022/12/28 09:16:42;;;;;;;4.50;3.10;;;;;;;15.95;82.46;95698.44;5128437;27;20184;-47
2022/12/28 09:19:13;;;;;;;4.30;3.30;;;;;;;16.43;80.26;95699.06;5128298;27;20204;-46
2022/12/28 09:21:40;;;;;;;4.40;3.27;;;;;;;16.82;78.66;95703.91;5128010;27;20652;-46
2022/12/28 09:24:08;;;;;;;3.40;3.10;;;;;;;17.05;77.40;95687.75;5128980;27;20192;-47
2022/12/28 09:26:37;;;;;;;6.60;3.70;;;;;;;17.48;76.13;95698.91;5128156;27;20756;-45
2022/12/28 09:29:05;;;;;;;3.83;3.17;;;;;;;17.78;74.90;95701.97;5127751;27;20188;-46
2022/12/28 09:31:35;;;;;;;4.80;3.40;;;;;;;18.04;73.97;95688.94;5133394;27;20182;-45
2022/12/28 09:34:02;;;;;;;4.90;3.13;;;;;;;18.26;72.52;95693.53;5148742;27;20223;-47
2022/12/28 09:36:32;;;;;;;6.53;3.07;;;;;;;18.48;71.75;95686.06;5145002;27;20816;-46
2022/12/28 09:39:01;;;;;;;4.80;3.60;;;;;;;18.68;71.05;95687.34;5137375;27;20234;-47
2022/12/28 09:41:30;;;;;;;6.80;3.17;;;;;;;18.86;70.44;95686.41;5132393;27;20642;-45
2022/12/28 09:44:17;;;;;;;3.77;3.47;;;;;;;19.03;69.66;95690.56;5126044;27;20189;-47
2022/12/28 09:46:49;;;;;;;4.00;3.63;;;;;;;19.21;68.98;95672.22;5127980;27;20185;-54
2022/12/28 09:49:19;;;;;;;4.50;3.47;;;;;;;19.34;68.51;95666.50;5127824;27;20197;-47
2022/12/28 09:51:52;;;;;;;19.27;3.97;;;;;;;19.48;67.82;95663.22;5127714;27;20188;-48
2022/12/28 09:54:19;;;;;;;3.53;3.20;;;;;;;19.60;67.14;95661.84;5127116;27;20208;-45
2022/12/28 09:56:48;;;;;;;4.07;3.17;;;;;;;19.63;66.77;95645.16;5127689;27;20195;-46
2022/12/28 09:59:20;;;;;;;3.63;3.33;;;;;;;19.79;66.22;95664.06;5126539;27;20216;-46
2022/12/28 10:01:55;;;;;;;3.57;3.17;;;;;;;19.89;65.58;95661.25;5107396;28;20188;-46
2022/12/28 10:04:22;;;;;;;3.50;3.20;;;;;;;19.89;64.97;95643.06;5106741;28;20183;-48
2022/12/28 10:06:51;;;;;;;5.90;3.93;;;;;;;19.85;64.85;95652.19;5106913;28;20220;-47
2022/12/28 10:09:25;;;;;;;3.80;3.50;;;;;;;19.66;64.24;95640.44;5112412;27;20218;-48
2022/12/28 10:11:52;;;;;;;4.67;3.97;;;;;;;19.08;63.84;95583.78;5117914;27;20191;-48
2022/12/28 10:14:22;;;;;;;4.07;3.58;;;;;;;19.21;63.46;95644.53;5126771;27;20220;-48
2022/12/28 10:16:49;;;;;;;4.60;4.20;;;;;;;18.96;62.91;95648.97;5127493;27;20243;-46
2022/12/28 10:19:18;;;;;;;5.30;4.33;;;;;;;18.73;62.84;95648.03;5127397;27;20280;-46
2022/12/28 10:21:46;;;;;;;6.97;4.77;;;;;;;18.52;62.49;95645.91;5126061;27;20192;-47
2022/12/28 10:24:15;;;;;;;5.00;4.47;;;;;;;18.29;62.35;95643.16;5127202;27;20224;-48
2022/12/28 10:26:44;;;;;;;4.37;3.90;;;;;;;18.18;62.35;95640.91;5127583;27;20772;-48
2022/12/28 10:29:16;;;;;;;5.37;4.73;;;;;;;18.02;62.05;95642.50;5127346;28;20290;-47
2022/12/28 10:31:43;;;;;;;5.67;4.60;;;;;;;17.85;62.02;95630.50;5130008;27;20180;-48
2022/12/28 10:34:15;;;;;;;7.33;4.70;;;;;;;17.73;61.85;95634.34;5130290;27;20219;-46
2022/12/28 10:36:42;;;;;;;5.93;4.87;;;;;;;17.59;61.73;95638.34;5133629;27;20184;-49
2022/12/28 10:39:17;;;;;;;9.27;6.47;;;;;;;17.47;61.93;95637.81;5131247;27;20220;-47
2022/12/28 10:41:45;;;;;;;7.03;5.20;;;;;;;17.34;61.44;95642.63;5131631;27;20362;-49
2022/12/28 10:44:19;;;;;;;5.40;4.90;;;;;;;17.19;61.22;95633.84;5134054;27;20219;-50
2022/12/28 10:46:56;;;;;;;6.00;5.40;;;;;;;17.05;61.22;95625.72;5131528;27;20184;-47
2022/12/28 10:49:24;;;;;;;10.80;5.37;;;;;;;17.00;61.21;95625.34;5131261;27;20188;-48
2022/12/28 10:52:07;;;;;;;6.37;5.10;;;;;;;16.89;61.15;95623.03;5130416;27;20186;-48
2022/12/28 10:54:37;;;;;;;6.20;4.93;;;;;;;16.86;60.95;95630.28;5130649;27;20207;-48
2022/12/28 10:57:04;;;;;;;6.83;5.73;;;;;;;16.79;60.95;95628.31;5130864;27;20257;-46
2022/12/28 10:59:32;;;;;;;6.37;5.53;;;;;;;16.75;60.91;95628.75;5130799;27;20203;-47
2022/12/28 11:02:22;;;;;;;6.10;5.50;;;;;;;16.68;60.82;95636.28;5131091;27;20189;-47
2022/12/28 11:04:53;;;;;;;6.27;5.67;;;;;;;16.59;60.64;95638.97;5130313;27;20200;-48
2022/12/28 11:07:29;;;;;;;6.40;5.47;;;;;;;16.45;60.64;95627.41;5130832;27;20181;-47
2022/12/28 11:10:23;;;;;;;7.03;5.20;;;;;;;16.41;60.60;95633.84;5130279;27;20188;-48
2022/12/28 11:12:51;;;;;;;7.77;5.60;;;;;;;16.34;60.69;95633.63;5129152;27;20189;-49
2022/12/28 11:15:20;;;;;;;7.30;5.63;;;;;;;16.29;60.63;95633.28;5130374;27;20232;-47
2022/12/28 11:17:52;;;;;;;7.47;5.57;;;;;;;16.23;60.59;95633.84;5130625;27;20193;-49
2022/12/28 11:20:23;;;;;;;5.87;5.30;;;;;;;16.17;60.49;95640.44;5128811;27;20907;-48
2022/12/28 11:22:51;;;;;;;5.93;5.10;;;;;;;15.92;60.59;95610.22;5129800;27;20195;-47
2022/12/28 11:25:19;;;;;;;6.73;6.03;;;;;;;16.03;60.65;95648.69;5130975;27;20196;-46
2022/12/28 11:27:48;;;;;;;7.23;6.07;;;;;;;15.95;60.51;95652.00;5130361;27;20266;-50
2022/12/28 11:30:16;;;;;;;7.73;6.00;;;;;;;15.76;60.54;95636.69;5130662;27;20193;-49
2022/12/28 11:32:49;;;;;;;6.17;5.47;;;;;;;15.78;60.67;95648.47;5145103;27;20640;-47
2022/12/28 11:35:17;;;;;;;7.13;5.77;;;;;;;15.68;60.64;95639.19;5150544;27;20341;-50
2022/12/28 11:37:55;;;;;;;10.53;6.10;;;;;;;15.63;60.57;95644.75;5145115;27;20192;-46
2022/12/28 11:40:51;;;;;;;7.67;5.73;;;;;;;15.56;60.50;95639.34;5130092;27;20224;-46
2022/12/28 11:43:47;;;;;;;8.30;5.90;;;;;;;15.47;60.43;95640.22;5046236;28;20195;-48
2022/12/28 11:46:41;;;;;;;7.77;5.67;;;;;;;15.38;60.52;95635.91;5047884;28;20193;-47
2022/12/28 11:49:26;;;;;;;8.37;5.60;;;;;;;15.32;60.64;95642.44;5052599;28;20248;-46
2022/12/28 11:52:44;;;;;;;8.00;5.90;;;;;;;15.25;60.54;95640.59;5055652;28;20682;-49
2022/12/28 11:55:36;;;;;;;6.97;5.50;;;;;;;15.15;60.71;95632.09;4955436;28;20251;-46
2022/12/28 11:58:36;;;;;;;6.33;5.43;;;;;;;15.06;60.79;95629.41;4953426;28;20245;-48
2022/12/28 12:01:04;;;;;;;7.47;5.13;;;;;;;14.99;60.89;95625.00;4958817;28;21027;-49
2022/12/28 12:04:09;;;;;;;8.60;5.57;;;;;;;14.91;60.90;95625.69;4958899;28;20821;-46
2022/12/28 12:07:21;;;;;;;10.17;6.03;;;;;;;14.83;60.99;95612.69;4918130;29;20207;-49
2022/12/28 12:09:49;;;;;;;6.30;5.63;;;;;;;14.75;60.98;95605.66;4845703;29;20824;-49
2022/12/28 12:12:35;;;;;;;7.57;5.57;;;;;;;14.75;61.00;95603.09;4843620;29;20221;-46
2022/12/28 12:15:09;;;;;;;9.53;5.77;;;;;;;14.62;60.91;95578.63;4844157;29;20305;-46